TDPD/DOM METAR and TAF weather

Enter ICAO airport designator
Station Type Date Time Source
TDPD METAR 2021/10/19 23:00 UTC NOAA

TDPD 192300Z 22001KT 9999 SCT015 25/24 Q1014


Station Type Date Time Source
TDPD Decoded METAR 2021/10/19 23:00 UTC NOAA

Melville Hall Airport, Dominica (TDPD) 15-32N 061-18W 14M
Oct 19, 2021 - 07:00 PM EDT / 2021.10.19 2300 UTC
Wind: from the SW (220 degrees) at 1 MPH (1 KT):0
Visibility: greater than 7 mile(s):0
Sky conditions: partly cloudy
Temperature: 77 F (25 C)
Dew Point: 75 F (24 C)
Relative Humidity: 94%
Pressure (altimeter): 29.94 in. Hg (1014 hPa)
ob: TDPD 192300Z 22001KT 9999 SCT015 25/24 Q1014
cycle: 23

Station Type Date Time Source
TDPD TAF 2021/10/20 06:56 UTC NOAA

TAF TDPD 200500Z 2006/2106 13008KT 9999 SCT018 PROB30
TEMPO 2006/2012 SHRA BKN015

Example: see airport list